sensor_id;sensor_type;location;lat;lon;timestamp;P1;durP1;ratioP1;P2;durP2;ratioP2
70216;SDS011;65567;55.684;37.570;2023-05-24T00:02:05;10.10;;;7.18;;
70216;SDS011;65567;55.684;37.570;2023-05-24T00:04:32;11.35;;;7.13;;
70216;SDS011;65567;55.684;37.570;2023-05-24T00:06:58;12.18;;;7.80;;
70216;SDS011;65567;55.684;37.570;2023-05-24T00:09:28;11.43;;;7.40;;
70216;SDS011;65567;55.684;37.570;2023-05-24T00:11:54;14.93;;;8.10;;
70216;SDS011;65567;55.684;37.570;2023-05-24T00:14:20;11.27;;;7.15;;
70216;SDS011;65567;55.684;37.570;2023-05-24T00:16:46;11.27;;;6.72;;
70216;SDS011;65567;55.684;37.570;2023-05-24T00:19:12;10.38;;;6.68;;
70216;SDS011;65567;55.684;37.570;2023-05-24T00:21:46;12.10;;;6.95;;
70216;SDS011;65567;55.684;37.570;2023-05-24T00:24:12;12.07;;;6.67;;
70216;SDS011;65567;55.684;37.570;2023-05-24T00:26:38;10.45;;;5.97;;
70216;SDS011;65567;55.684;37.570;2023-05-24T00:29:04;12.48;;;6.10;;
70216;SDS011;65567;55.684;37.570;2023-05-24T00:31:30;11.15;;;7.18;;
70216;SDS011;65567;55.684;37.570;2023-05-24T00:33:56;14.18;;;7.15;;
70216;SDS011;65567;55.684;37.570;2023-05-24T00:36:22;10.48;;;7.15;;
70216;SDS011;65567;55.684;37.570;2023-05-24T00:41:32;8.85;;;6.25;;
70216;SDS011;65567;55.684;37.570;2023-05-24T00:43:58;12.35;;;6.28;;
70216;SDS011;65567;55.684;37.570;2023-05-24T00:46:26;12.85;;;6.47;;
70216;SDS011;65567;55.684;37.570;2023-05-24T00:48:53;9.25;;;6.60;;
70216;SDS011;65567;55.684;37.570;2023-05-24T00:51:19;13.00;;;6.20;;
70216;SDS011;65567;55.684;37.570;2023-05-24T00:53:48;10.48;;;6.20;;
70216;SDS011;65567;55.684;37.570;2023-05-24T00:56:15;13.18;;;5.78;;
70216;SDS011;65567;55.684;37.570;2023-05-24T00:58:42;8.77;;;5.78;;
70216;SDS011;65567;55.684;37.570;2023-05-24T01:01:08;11.73;;;7.05;;
70216;SDS011;65567;55.684;37.570;2023-05-24T01:03:34;11.55;;;6.80;;
70216;SDS011;65567;55.684;37.570;2023-05-24T01:06:02;9.60;;;6.72;;
70216;SDS011;65567;55.684;37.570;2023-05-24T01:19:53;11.68;;;7.47;;
70216;SDS011;65567;55.684;37.570;2023-05-24T01:28:00;10.82;;;7.22;;
70216;SDS011;65567;55.684;37.570;2023-05-24T01:30:28;10.38;;;6.82;;
70216;SDS011;65567;55.684;37.570;2023-05-24T01:32:54;11.48;;;6.75;;
70216;SDS011;65567;55.684;37.570;2023-05-24T01:35:20;9.48;;;6.45;;
70216;SDS011;65567;55.684;37.570;2023-05-24T01:37:45;10.43;;;7.35;;
70216;SDS011;65567;55.684;37.570;2023-05-24T01:40:11;11.90;;;6.85;;
70216;SDS011;65567;55.684;37.570;2023-05-24T01:50:32;11.07;;;6.57;;
70216;SDS011;65567;55.684;37.570;2023-05-24T01:53:04;10.88;;;6.65;;
70216;SDS011;65567;55.684;37.570;2023-05-24T01:55:33;10.48;;;6.90;;
70216;SDS011;65567;55.684;37.570;2023-05-24T01:58:02;12.75;;;7.78;;
70216;SDS011;65567;55.684;37.570;2023-05-24T02:00:30;11.63;;;6.78;;
70216;SDS011;65567;55.684;37.570;2023-05-24T02:02:58;10.95;;;6.63;;
70216;SDS011;65567;55.684;37.570;2023-05-24T02:05:26;10.57;;;6.57;;
70216;SDS011;65567;55.684;37.570;2023-05-24T02:07:51;11.80;;;6.72;;
70216;SDS011;65567;55.684;37.570;2023-05-24T02:10:17;11.73;;;6.65;;
70216;SDS011;65567;55.684;37.570;2023-05-24T02:12:43;11.23;;;6.38;;
70216;SDS011;65567;55.684;37.570;2023-05-24T02:15:10;11.82;;;5.93;;
70216;SDS011;65567;55.684;37.570;2023-05-24T02:17:39;10.75;;;7.22;;
70216;SDS011;65567;55.684;37.570;2023-05-24T02:20:07;11.50;;;7.03;;
70216;SDS011;65567;55.684;37.570;2023-05-24T02:22:33;11.30;;;6.40;;
70216;SDS011;65567;55.684;37.570;2023-05-24T02:24:59;11.95;;;6.60;;
70216;SDS011;65567;55.684;37.570;2023-05-24T02:27:25;10.13;;;6.63;;
70216;SDS011;65567;55.684;37.570;2023-05-24T02:29:50;10.35;;;6.13;;
70216;SDS011;65567;55.684;37.570;2023-05-24T02:32:17;12.70;;;6.88;;
70216;SDS011;65567;55.684;37.570;2023-05-24T02:34:42;12.93;;;7.38;;
70216;SDS011;65567;55.684;37.570;2023-05-24T02:37:09;14.20;;;6.95;;
70216;SDS011;65567;55.684;37.570;2023-05-24T02:39:39;13.52;;;7.22;;
70216;SDS011;65567;55.684;37.570;2023-05-24T02:42:07;20.50;;;7.57;;
70216;SDS011;65567;55.684;37.570;2023-05-24T02:44:35;11.63;;;6.18;;
70216;SDS011;65567;55.684;37.570;2023-05-24T02:47:01;12.50;;;6.38;;
70216;SDS011;65567;55.684;37.570;2023-05-24T02:49:26;16.33;;;6.22;;
70216;SDS011;65567;55.684;37.570;2023-05-24T02:51:52;9.13;;;6.10;;
70216;SDS011;65567;55.684;37.570;2023-05-24T02:54:18;14.45;;;6.72;;
70216;SDS011;65567;55.684;37.570;2023-05-24T02:56:44;11.48;;;6.40;;
70216;SDS011;65567;55.684;37.570;2023-05-24T02:59:09;11.68;;;6.40;;
70216;SDS011;65567;55.684;37.570;2023-05-24T03:01:35;12.00;;;5.65;;
70216;SDS011;65567;55.684;37.570;2023-05-24T03:04:01;12.70;;;6.05;;
70216;SDS011;65567;55.684;37.570;2023-05-24T03:06:27;11.35;;;5.93;;
70216;SDS011;65567;55.684;37.570;2023-05-24T03:08:52;13.90;;;6.55;;
70216;SDS011;65567;55.684;37.570;2023-05-24T03:11:18;13.18;;;6.22;;
70216;SDS011;65567;55.684;37.570;2023-05-24T03:13:48;13.52;;;6.55;;
70216;SDS011;65567;55.684;37.570;2023-05-24T03:16:13;9.90;;;6.13;;
70216;SDS011;65567;55.684;37.570;2023-05-24T03:18:41;13.70;;;6.32;;
70216;SDS011;65567;55.684;37.570;2023-05-24T03:21:06;12.02;;;6.55;;
70216;SDS011;65567;55.684;37.570;2023-05-24T03:23:32;10.75;;;6.85;;
70216;SDS011;65567;55.684;37.570;2023-05-24T03:25:58;11.27;;;7.13;;
70216;SDS011;65567;55.684;37.570;2023-05-24T03:28:24;10.27;;;7.07;;
70216;SDS011;65567;55.684;37.570;2023-05-24T03:30:51;12.05;;;6.80;;
70216;SDS011;65567;55.684;37.570;2023-05-24T03:33:17;13.40;;;6.97;;
70216;SDS011;65567;55.684;37.570;2023-05-24T03:35:43;9.98;;;6.25;;
70216;SDS011;65567;55.684;37.570;2023-05-24T03:38:09;10.90;;;6.18;;
70216;SDS011;65567;55.684;37.570;2023-05-24T03:40:35;8.40;;;6.60;;
70216;SDS011;65567;55.684;37.570;2023-05-24T03:43:01;12.05;;;6.00;;
70216;SDS011;65567;55.684;37.570;2023-05-24T03:45:26;11.50;;;6.25;;
70216;SDS011;65567;55.684;37.570;2023-05-24T03:47:52;11.30;;;5.97;;
70216;SDS011;65567;55.684;37.570;2023-05-24T03:50:18;11.75;;;6.65;;
70216;SDS011;65567;55.684;37.570;2023-05-24T03:52:43;10.35;;;6.20;;
70216;SDS011;65567;55.684;37.570;2023-05-24T03:55:09;13.20;;;6.55;;
70216;SDS011;65567;55.684;37.570;2023-05-24T03:57:35;15.70;;;6.50;;
70216;SDS011;65567;55.684;37.570;2023-05-24T04:00:01;11.52;;;5.72;;
70216;SDS011;65567;55.684;37.570;2023-05-24T04:02:27;14.15;;;6.75;;
70216;SDS011;65567;55.684;37.570;2023-05-24T04:04:52;9.98;;;5.90;;
70216;SDS011;65567;55.684;37.570;2023-05-24T04:07:18;9.27;;;5.80;;
70216;SDS011;65567;55.684;37.570;2023-05-24T04:09:44;9.43;;;5.78;;
70216;SDS011;65567;55.684;37.570;2023-05-24T04:12:10;11.00;;;6.10;;
70216;SDS011;65567;55.684;37.570;2023-05-24T04:14:35;12.05;;;5.97;;
70216;SDS011;65567;55.684;37.570;2023-05-24T04:17:01;13.30;;;6.38;;
70216;SDS011;65567;55.684;37.570;2023-05-24T04:19:29;11.02;;;6.35;;
70216;SDS011;65567;55.684;37.570;2023-05-24T04:21:56;13.07;;;6.05;;
70216;SDS011;65567;55.684;37.570;2023-05-24T04:24:22;13.73;;;6.32;;
70216;SDS011;65567;55.684;37.570;2023-05-24T04:26:47;11.73;;;6.38;;
70216;SDS011;65567;55.684;37.570;2023-05-24T04:29:14;12.90;;;6.03;;
70216;SDS011;65567;55.684;37.570;2023-05-24T04:31:40;10.85;;;6.00;;
70216;SDS011;65567;55.684;37.570;2023-05-24T04:34:08;12.13;;;6.30;;
70216;SDS011;65567;55.684;37.570;2023-05-24T04:36:37;10.70;;;5.65;;
70216;SDS011;65567;55.684;37.570;2023-05-24T04:39:03;11.23;;;6.07;;
70216;SDS011;65567;55.684;37.570;2023-05-24T04:41:29;13.82;;;6.15;;
70216;SDS011;65567;55.684;37.570;2023-05-24T04:43:56;8.98;;;5.80;;
70216;SDS011;65567;55.684;37.570;2023-05-24T04:46:24;16.40;;;6.00;;
70216;SDS011;65567;55.684;37.570;2023-05-24T04:48:51;10.40;;;5.85;;
70216;SDS011;65567;55.684;37.570;2023-05-24T04:51:17;14.65;;;6.13;;
70216;SDS011;65567;55.684;37.570;2023-05-24T04:53:44;7.07;;;5.43;;
70216;SDS011;65567;55.684;37.570;2023-05-24T04:56:09;12.27;;;5.80;;
70216;SDS011;65567;55.684;37.570;2023-05-24T04:58:39;9.77;;;5.57;;
70216;SDS011;65567;55.684;37.570;2023-05-24T05:01:05;13.25;;;5.60;;
70216;SDS011;65567;55.684;37.570;2023-05-24T05:03:31;11.45;;;5.45;;
70216;SDS011;65567;55.684;37.570;2023-05-24T05:05:57;10.02;;;5.57;;
70216;SDS011;65567;55.684;37.570;2023-05-24T05:08:23;10.40;;;5.75;;
70216;SDS011;65567;55.684;37.570;2023-05-24T05:10:49;10.40;;;5.65;;
70216;SDS011;65567;55.684;37.570;2023-05-24T05:13:15;12.27;;;5.82;;
70216;SDS011;65567;55.684;37.570;2023-05-24T05:15:41;14.60;;;6.43;;
70216;SDS011;65567;55.684;37.570;2023-05-24T05:18:07;17.90;;;10.90;;
70216;SDS011;65567;55.684;37.570;2023-05-24T05:20:33;9.57;;;6.40;;
70216;SDS011;65567;55.684;37.570;2023-05-24T05:22:58;22.85;;;8.18;;
70216;SDS011;65567;55.684;37.570;2023-05-24T05:25:24;9.20;;;6.00;;
70216;SDS011;65567;55.684;37.570;2023-05-24T05:27:50;16.17;;;7.03;;
70216;SDS011;65567;55.684;37.570;2023-05-24T05:30:16;9.18;;;6.05;;
70216;SDS011;65567;55.684;37.570;2023-05-24T05:32:41;12.27;;;6.43;;
70216;SDS011;65567;55.684;37.570;2023-05-24T05:35:07;9.10;;;5.88;;
70216;SDS011;65567;55.684;37.570;2023-05-24T05:37:33;11.25;;;6.30;;
70216;SDS011;65567;55.684;37.570;2023-05-24T05:39:59;9.73;;;5.57;;
70216;SDS011;65567;55.684;37.570;2023-05-24T05:42:25;9.23;;;5.55;;
70216;SDS011;65567;55.684;37.570;2023-05-24T05:44:50;10.75;;;5.93;;
70216;SDS011;65567;55.684;37.570;2023-05-24T05:47:16;10.45;;;6.15;;
70216;SDS011;65567;55.684;37.570;2023-05-24T05:49:42;11.63;;;5.38;;
70216;SDS011;65567;55.684;37.570;2023-05-24T05:52:08;13.40;;;5.18;;
70216;SDS011;65567;55.684;37.570;2023-05-24T05:54:33;7.65;;;4.60;;
70216;SDS011;65567;55.684;37.570;2023-05-24T05:56:59;9.82;;;4.80;;
70216;SDS011;65567;55.684;37.570;2023-05-24T05:59:25;9.95;;;5.30;;
70216;SDS011;65567;55.684;37.570;2023-05-24T06:01:51;18.88;;;5.80;;
70216;SDS011;65567;55.684;37.570;2023-05-24T06:04:17;11.50;;;5.38;;
70216;SDS011;65567;55.684;37.570;2023-05-24T06:06:43;8.75;;;5.50;;
70216;SDS011;65567;55.684;37.570;2023-05-24T06:09:18;8.05;;;4.72;;
70216;SDS011;65567;55.684;37.570;2023-05-24T06:11:43;15.32;;;7.10;;
70216;SDS011;65567;55.684;37.570;2023-05-24T06:14:10;11.15;;;5.50;;
70216;SDS011;65567;55.684;37.570;2023-05-24T06:16:37;11.23;;;5.10;;
70216;SDS011;65567;55.684;37.570;2023-05-24T06:19:07;8.23;;;5.68;;
70216;SDS011;65567;55.684;37.570;2023-05-24T06:21:34;11.60;;;6.03;;
70216;SDS011;65567;55.684;37.570;2023-05-24T06:24:01;8.90;;;5.57;;
70216;SDS011;65567;55.684;37.570;2023-05-24T06:26:28;12.75;;;5.22;;
70216;SDS011;65567;55.684;37.570;2023-05-24T06:28:54;9.57;;;5.35;;
70216;SDS011;65567;55.684;37.570;2023-05-24T06:31:20;9.25;;;5.57;;
70216;SDS011;65567;55.684;37.570;2023-05-24T06:33:46;8.48;;;5.13;;
70216;SDS011;65567;55.684;37.570;2023-05-24T06:36:11;10.57;;;6.38;;
70216;SDS011;65567;55.684;37.570;2023-05-24T06:38:37;8.50;;;5.40;;
70216;SDS011;65567;55.684;37.570;2023-05-24T06:41:03;10.25;;;5.95;;
70216;SDS011;65567;55.684;37.570;2023-05-24T06:43:29;14.13;;;5.80;;
70216;SDS011;65567;55.684;37.570;2023-05-24T06:45:54;10.80;;;6.20;;
70216;SDS011;65567;55.684;37.570;2023-05-24T06:48:20;7.47;;;5.80;;
70216;SDS011;65567;55.684;37.570;2023-05-24T06:50:46;15.45;;;6.63;;
70216;SDS011;65567;55.684;37.570;2023-05-24T06:53:12;13.45;;;6.10;;
70216;SDS011;65567;55.684;37.570;2023-05-24T06:55:38;15.75;;;6.72;;
70216;SDS011;65567;55.684;37.570;2023-05-24T06:58:05;11.48;;;6.45;;
70216;SDS011;65567;55.684;37.570;2023-05-24T07:00:31;8.73;;;6.55;;
70216;SDS011;65567;55.684;37.570;2023-05-24T07:02:56;8.75;;;6.80;;
70216;SDS011;65567;55.684;37.570;2023-05-24T07:05:22;12.40;;;6.15;;
70216;SDS011;65567;55.684;37.570;2023-05-24T07:07:48;8.38;;;5.97;;
70216;SDS011;65567;55.684;37.570;2023-05-24T07:10:14;12.32;;;5.90;;
70216;SDS011;65567;55.684;37.570;2023-05-24T07:12:39;8.27;;;5.32;;
70216;SDS011;65567;55.684;37.570;2023-05-24T07:15:05;9.07;;;5.22;;
70216;SDS011;65567;55.684;37.570;2023-05-24T07:17:32;12.05;;;5.30;;
70216;SDS011;65567;55.684;37.570;2023-05-24T07:20:00;12.00;;;6.03;;
70216;SDS011;65567;55.684;37.570;2023-05-24T07:22:31;9.52;;;4.95;;
70216;SDS011;65567;55.684;37.570;2023-05-24T07:24:58;10.00;;;5.30;;
70216;SDS011;65567;55.684;37.570;2023-05-24T07:27:24;10.80;;;5.78;;
70216;SDS011;65567;55.684;37.570;2023-05-24T07:29:49;9.70;;;6.07;;
70216;SDS011;65567;55.684;37.570;2023-05-24T07:32:15;10.68;;;5.43;;
70216;SDS011;65567;55.684;37.570;2023-05-24T07:34:43;8.88;;;5.38;;
70216;SDS011;65567;55.684;37.570;2023-05-24T07:37:09;9.65;;;5.50;;
70216;SDS011;65567;55.684;37.570;2023-05-24T07:39:34;10.18;;;6.13;;
70216;SDS011;65567;55.684;37.570;2023-05-24T07:42:00;10.55;;;6.85;;
70216;SDS011;65567;55.684;37.570;2023-05-24T07:44:26;14.15;;;6.85;;
70216;SDS011;65567;55.684;37.570;2023-05-24T07:46:53;10.35;;;6.10;;
70216;SDS011;65567;55.684;37.570;2023-05-24T07:49:19;12.10;;;6.03;;
70216;SDS011;65567;55.684;37.570;2023-05-24T07:51:46;12.32;;;6.78;;
70216;SDS011;65567;55.684;37.570;2023-05-24T07:54:12;17.30;;;7.05;;
70216;SDS011;65567;55.684;37.570;2023-05-24T07:56:40;9.75;;;6.05;;
70216;SDS011;65567;55.684;37.570;2023-05-24T07:59:06;12.52;;;6.88;;
70216;SDS011;65567;55.684;37.570;2023-05-24T08:01:35;10.07;;;6.60;;
70216;SDS011;65567;55.684;37.570;2023-05-24T08:04:01;11.18;;;7.13;;
70216;SDS011;65567;55.684;37.570;2023-05-24T08:06:32;12.15;;;6.93;;
70216;SDS011;65567;55.684;37.570;2023-05-24T08:08:59;12.95;;;6.95;;
70216;SDS011;65567;55.684;37.570;2023-05-24T08:11:25;13.32;;;7.13;;
70216;SDS011;65567;55.684;37.570;2023-05-24T08:13:52;11.80;;;6.30;;
70216;SDS011;65567;55.684;37.570;2023-05-24T08:16:17;10.02;;;6.95;;
70216;SDS011;65567;55.684;37.570;2023-05-24T08:18:43;10.02;;;6.90;;
70216;SDS011;65567;55.684;37.570;2023-05-24T08:21:09;13.15;;;6.38;;
70216;SDS011;65567;55.684;37.570;2023-05-24T08:23:34;14.20;;;6.90;;
70216;SDS011;65567;55.684;37.570;2023-05-24T08:26:00;16.15;;;7.70;;
70216;SDS011;65567;55.684;37.570;2023-05-24T08:28:27;10.98;;;6.63;;
70216;SDS011;65567;55.684;37.570;2023-05-24T08:30:53;13.27;;;6.88;;
70216;SDS011;65567;55.684;37.570;2023-05-24T08:33:19;13.50;;;6.50;;
70216;SDS011;65567;55.684;37.570;2023-05-24T08:35:47;10.55;;;6.90;;
70216;SDS011;65567;55.684;37.570;2023-05-24T08:38:14;18.30;;;7.40;;
70216;SDS011;65567;55.684;37.570;2023-05-24T08:40:41;18.23;;;8.98;;
70216;SDS011;65567;55.684;37.570;2023-05-24T08:43:07;14.10;;;7.03;;
70216;SDS011;65567;55.684;37.570;2023-05-24T08:45:37;11.05;;;6.95;;
70216;SDS011;65567;55.684;37.570;2023-05-24T08:48:06;10.65;;;7.57;;
70216;SDS011;65567;55.684;37.570;2023-05-24T08:50:34;17.00;;;7.78;;
70216;SDS011;65567;55.684;37.570;2023-05-24T08:53:00;14.02;;;7.43;;
70216;SDS011;65567;55.684;37.570;2023-05-24T08:55:29;12.13;;;7.50;;
70216;SDS011;65567;55.684;37.570;2023-05-24T08:57:56;14.77;;;7.68;;
70216;SDS011;65567;55.684;37.570;2023-05-24T09:00:22;13.15;;;7.78;;
70216;SDS011;65567;55.684;37.570;2023-05-24T09:02:48;12.32;;;7.40;;
70216;SDS011;65567;55.684;37.570;2023-05-24T09:05:15;14.18;;;7.40;;
70216;SDS011;65567;55.684;37.570;2023-05-24T09:07:44;11.13;;;7.13;;
70216;SDS011;65567;55.684;37.570;2023-05-24T09:10:10;13.85;;;7.78;;
70216;SDS011;65567;55.684;37.570;2023-05-24T09:12:36;13.50;;;8.10;;
70216;SDS011;65567;55.684;37.570;2023-05-24T09:15:04;10.07;;;6.50;;
70216;SDS011;65567;55.684;37.570;2023-05-24T09:17:31;6.45;;;4.50;;
70216;SDS011;65567;55.684;37.570;2023-05-24T09:19:58;12.00;;;5.38;;
70216;SDS011;65567;55.684;37.570;2023-05-24T09:22:24;5.55;;;3.30;;
70216;SDS011;65567;55.684;37.570;2023-05-24T09:25:00;8.90;;;4.00;;
70216;SDS011;65567;55.684;37.570;2023-05-24T09:27:27;9.70;;;4.15;;
70216;SDS011;65567;55.684;37.570;2023-05-24T09:29:55;8.20;;;3.97;;
70216;SDS011;65567;55.684;37.570;2023-05-24T09:32:21;9.40;;;4.20;;
70216;SDS011;65567;55.684;37.570;2023-05-24T09:34:49;6.63;;;4.03;;
70216;SDS011;65567;55.684;37.570;2023-05-24T09:37:21;9.57;;;3.75;;
70216;SDS011;65567;55.684;37.570;2023-05-24T09:39:51;8.45;;;3.35;;
70216;SDS011;65567;55.684;37.570;2023-05-24T09:42:18;8.82;;;3.42;;
70216;SDS011;65567;55.684;37.570;2023-05-24T09:45:00;9.93;;;4.00;;
70216;SDS011;65567;55.684;37.570;2023-05-24T09:47:34;8.05;;;4.10;;
70216;SDS011;65567;55.684;37.570;2023-05-24T09:50:01;10.73;;;3.55;;
70216;SDS011;65567;55.684;37.570;2023-05-24T09:52:28;9.25;;;4.00;;
70216;SDS011;65567;55.684;37.570;2023-05-24T09:54:54;7.75;;;3.25;;
70216;SDS011;65567;55.684;37.570;2023-05-24T09:57:20;7.90;;;3.05;;
70216;SDS011;65567;55.684;37.570;2023-05-24T09:59:50;7.40;;;3.42;;
70216;SDS011;65567;55.684;37.570;2023-05-24T10:02:16;5.38;;;3.38;;
70216;SDS011;65567;55.684;37.570;2023-05-24T10:04:46;6.72;;;3.38;;
70216;SDS011;65567;55.684;37.570;2023-05-24T10:07:12;7.25;;;3.95;;
70216;SDS011;65567;55.684;37.570;2023-05-24T10:09:40;7.38;;;3.63;;
70216;SDS011;65567;55.684;37.570;2023-05-24T10:12:08;9.18;;;4.18;;
70216;SDS011;65567;55.684;37.570;2023-05-24T10:14:37;7.43;;;4.18;;
70216;SDS011;65567;55.684;37.570;2023-05-24T10:17:03;8.07;;;3.60;;
70216;SDS011;65567;55.684;37.570;2023-05-24T10:19:34;6.68;;;3.78;;
70216;SDS011;65567;55.684;37.570;2023-05-24T10:24:34;7.40;;;3.92;;
70216;SDS011;65567;55.684;37.570;2023-05-24T10:27:03;10.65;;;4.43;;
70216;SDS011;65567;55.684;37.570;2023-05-24T10:29:43;9.68;;;4.28;;
70216;SDS011;65567;55.684;37.570;2023-05-24T10:32:32;8.35;;;4.30;;
70216;SDS011;65567;55.684;37.570;2023-05-24T10:34:59;11.27;;;4.50;;
70216;SDS011;65567;55.684;37.570;2023-05-24T10:37:27;8.18;;;4.47;;
70216;SDS011;65567;55.684;37.570;2023-05-24T10:39:56;10.90;;;4.38;;
70216;SDS011;65567;55.684;37.570;2023-05-24T10:42:23;8.98;;;4.18;;
70216;SDS011;65567;55.684;37.570;2023-05-24T10:44:49;11.90;;;4.70;;
70216;SDS011;65567;55.684;37.570;2023-05-24T10:47:14;9.93;;;4.93;;
70216;SDS011;65567;55.684;37.570;2023-05-24T10:49:47;8.80;;;4.20;;
70216;SDS011;65567;55.684;37.570;2023-05-24T10:52:15;12.45;;;4.22;;
70216;SDS011;65567;55.684;37.570;2023-05-24T10:54:51;9.90;;;4.35;;
70216;SDS011;65567;55.684;37.570;2023-05-24T10:57:29;11.90;;;4.03;;
70216;SDS011;65567;55.684;37.570;2023-05-24T10:59:57;7.47;;;4.13;;
70216;SDS011;65567;55.684;37.570;2023-05-24T11:02:43;8.75;;;4.47;;
70216;SDS011;65567;55.684;37.570;2023-05-24T11:05:08;10.75;;;3.97;;
70216;SDS011;65567;55.684;37.570;2023-05-24T11:07:39;12.35;;;3.95;;
70216;SDS011;65567;55.684;37.570;2023-05-24T11:10:12;8.93;;;4.60;;
70216;SDS011;65567;55.684;37.570;2023-05-24T11:12:42;6.88;;;4.32;;
70216;SDS011;65567;55.684;37.570;2023-05-24T11:15:09;13.38;;;5.07;;
70216;SDS011;65567;55.684;37.570;2023-05-24T11:20:38;9.25;;;4.00;;
70216;SDS011;65567;55.684;37.570;2023-05-24T11:23:10;7.82;;;4.07;;
70216;SDS011;65567;55.684;37.570;2023-05-24T11:25:38;11.13;;;4.78;;
70216;SDS011;65567;55.684;37.570;2023-05-24T11:28:08;12.30;;;4.10;;
70216;SDS011;65567;55.684;37.570;2023-05-24T11:30:44;7.70;;;3.90;;
70216;SDS011;65567;55.684;37.570;2023-05-24T11:33:18;7.72;;;3.85;;
70216;SDS011;65567;55.684;37.570;2023-05-24T11:35:49;9.30;;;3.50;;
70216;SDS011;65567;55.684;37.570;2023-05-24T11:38:16;14.32;;;5.30;;
70216;SDS011;65567;55.684;37.570;2023-05-24T11:40:46;11.85;;;4.90;;
70216;SDS011;65567;55.684;37.570;2023-05-24T11:43:17;11.63;;;4.82;;
70216;SDS011;65567;55.684;37.570;2023-05-24T11:45:45;10.77;;;4.90;;
70216;SDS011;65567;55.684;37.570;2023-05-24T11:48:13;10.20;;;5.63;;
70216;SDS011;65567;55.684;37.570;2023-05-24T11:50:41;11.27;;;4.53;;
70216;SDS011;65567;55.684;37.570;2023-05-24T11:53:14;12.10;;;4.85;;
70216;SDS011;65567;55.684;37.570;2023-05-24T11:55:43;15.85;;;5.50;;
70216;SDS011;65567;55.684;37.570;2023-05-24T11:58:19;11.93;;;4.82;;
70216;SDS011;65567;55.684;37.570;2023-05-24T12:00:47;11.90;;;4.72;;
70216;SDS011;65567;55.684;37.570;2023-05-24T12:03:15;10.55;;;4.20;;
70216;SDS011;65567;55.684;37.570;2023-05-24T12:05:41;15.05;;;4.90;;
70216;SDS011;65567;55.684;37.570;2023-05-24T12:08:09;10.70;;;4.53;;
70216;SDS011;65567;55.684;37.570;2023-05-24T12:10:45;7.95;;;4.30;;
70216;SDS011;65567;55.684;37.570;2023-05-24T12:13:22;10.68;;;4.13;;
70216;SDS011;65567;55.684;37.570;2023-05-24T12:15:52;11.50;;;5.00;;
70216;SDS011;65567;55.684;37.570;2023-05-24T12:20:49;7.07;;;4.65;;
70216;SDS011;65567;55.684;37.570;2023-05-24T12:23:17;7.35;;;4.07;;
70216;SDS011;65567;55.684;37.570;2023-05-24T12:25:45;5.68;;;4.00;;
70216;SDS011;65567;55.684;37.570;2023-05-24T12:28:11;9.75;;;4.20;;
70216;SDS011;65567;55.684;37.570;2023-05-24T12:30:37;8.85;;;4.85;;
70216;SDS011;65567;55.684;37.570;2023-05-24T12:33:10;9.30;;;5.05;;
70216;SDS011;65567;55.684;37.570;2023-05-24T12:35:36;10.15;;;4.65;;
70216;SDS011;65567;55.684;37.570;2023-05-24T12:38:07;9.55;;;4.97;;
70216;SDS011;65567;55.684;37.570;2023-05-24T12:40:34;7.75;;;4.43;;
70216;SDS011;65567;55.684;37.570;2023-05-24T12:43:01;8.63;;;4.60;;
70216;SDS011;65567;55.684;37.570;2023-05-24T12:45:28;9.30;;;5.40;;
70216;SDS011;65567;55.684;37.570;2023-05-24T12:47:54;10.10;;;5.60;;
70216;SDS011;65567;55.684;37.570;2023-05-24T12:50:23;9.00;;;5.80;;
70216;SDS011;65567;55.684;37.570;2023-05-24T12:52:50;10.75;;;5.75;;
70216;SDS011;65567;55.684;37.570;2023-05-24T12:55:23;11.80;;;6.13;;
70216;SDS011;65567;55.684;37.570;2023-05-24T12:57:53;8.68;;;6.10;;
70216;SDS011;65567;55.684;37.570;2023-05-24T13:00:20;10.70;;;5.95;;
70216;SDS011;65567;55.684;37.570;2023-05-24T13:02:52;10.32;;;6.57;;
70216;SDS011;65567;55.684;37.570;2023-05-24T13:05:29;16.98;;;7.95;;
70216;SDS011;65567;55.684;37.570;2023-05-24T13:07:55;17.02;;;6.70;;
70216;SDS011;65567;55.684;37.570;2023-05-24T13:10:22;16.77;;;6.70;;
70216;SDS011;65567;55.684;37.570;2023-05-24T13:12:48;14.43;;;7.15;;
70216;SDS011;65567;55.684;37.570;2023-05-24T13:15:14;16.40;;;6.90;;
70216;SDS011;65567;55.684;37.570;2023-05-24T13:17:40;10.75;;;6.10;;
70216;SDS011;65567;55.684;37.570;2023-05-24T13:20:07;12.50;;;6.43;;
70216;SDS011;65567;55.684;37.570;2023-05-24T13:22:35;11.52;;;6.03;;
70216;SDS011;65567;55.684;37.570;2023-05-24T13:25:03;9.38;;;5.75;;
70216;SDS011;65567;55.684;37.570;2023-05-24T13:27:29;11.25;;;5.78;;
70216;SDS011;65567;55.684;37.570;2023-05-24T13:29:55;11.52;;;5.50;;
70216;SDS011;65567;55.684;37.570;2023-05-24T13:32:22;11.50;;;5.10;;
70216;SDS011;65567;55.684;37.570;2023-05-24T13:34:48;13.15;;;5.72;;
70216;SDS011;65567;55.684;37.570;2023-05-24T13:37:14;7.22;;;4.13;;
70216;SDS011;65567;55.684;37.570;2023-05-24T13:39:43;15.27;;;6.25;;
70216;SDS011;65567;55.684;37.570;2023-05-24T13:42:09;10.85;;;4.78;;
70216;SDS011;65567;55.684;37.570;2023-05-24T13:44:35;9.63;;;4.35;;
70216;SDS011;65567;55.684;37.570;2023-05-24T13:47:01;7.13;;;3.35;;
70216;SDS011;65567;55.684;37.570;2023-05-24T13:49:28;9.27;;;4.03;;
70216;SDS011;65567;55.684;37.570;2023-05-24T13:51:53;6.22;;;3.67;;
70216;SDS011;65567;55.684;37.570;2023-05-24T13:54:20;10.02;;;4.00;;
70216;SDS011;65567;55.684;37.570;2023-05-24T13:56:46;8.73;;;4.32;;
70216;SDS011;65567;55.684;37.570;2023-05-24T13:59:14;17.02;;;6.10;;
70216;SDS011;65567;55.684;37.570;2023-05-24T14:01:41;8.60;;;4.63;;
70216;SDS011;65567;55.684;37.570;2023-05-24T14:04:07;9.73;;;4.55;;
70216;SDS011;65567;55.684;37.570;2023-05-24T14:06:33;9.93;;;5.20;;
70216;SDS011;65567;55.684;37.570;2023-05-24T14:09:02;18.58;;;5.45;;
70216;SDS011;65567;55.684;37.570;2023-05-24T14:11:30;6.78;;;3.63;;
70216;SDS011;65567;55.684;37.570;2023-05-24T14:13:56;10.13;;;4.30;;
70216;SDS011;65567;55.684;37.570;2023-05-24T14:16:22;7.82;;;4.03;;
70216;SDS011;65567;55.684;37.570;2023-05-24T14:18:48;12.02;;;3.67;;
70216;SDS011;65567;55.684;37.570;2023-05-24T14:21:16;9.50;;;4.35;;
70216;SDS011;65567;55.684;37.570;2023-05-24T14:23:43;7.47;;;3.97;;
70216;SDS011;65567;55.684;37.570;2023-05-24T14:26:08;6.90;;;3.67;;
70216;SDS011;65567;55.684;37.570;2023-05-24T14:28:34;17.73;;;4.97;;
70216;SDS011;65567;55.684;37.570;2023-05-24T14:31:00;11.32;;;4.47;;
70216;SDS011;65567;55.684;37.570;2023-05-24T14:33:26;11.02;;;4.57;;
70216;SDS011;65567;55.684;37.570;2023-05-24T14:35:53;8.70;;;3.92;;
70216;SDS011;65567;55.684;37.570;2023-05-24T14:38:19;15.93;;;5.78;;
70216;SDS011;65567;55.684;37.570;2023-05-24T14:40:47;13.07;;;4.72;;
70216;SDS011;65567;55.684;37.570;2023-05-24T14:43:13;11.27;;;5.10;;
70216;SDS011;65567;55.684;37.570;2023-05-24T14:45:39;9.65;;;4.95;;
70216;SDS011;65567;55.684;37.570;2023-05-24T14:48:05;11.20;;;5.07;;
70216;SDS011;65567;55.684;37.570;2023-05-24T14:50:35;7.90;;;4.75;;
70216;SDS011;65567;55.684;37.570;2023-05-24T14:53:02;9.98;;;4.90;;
70216;SDS011;65567;55.684;37.570;2023-05-24T14:55:34;8.48;;;4.93;;
70216;SDS011;65567;55.684;37.570;2023-05-24T14:58:00;9.73;;;5.10;;
70216;SDS011;65567;55.684;37.570;2023-05-24T15:00:26;16.15;;;6.00;;
70216;SDS011;65567;55.684;37.570;2023-05-24T15:02:52;7.85;;;5.05;;